sensor_id;sensor_type;location;lat;lon;timestamp;P1;durP1;ratioP1;P2;durP2;ratioP2
10479;SDS011;12789;42.610;23.040;2023-10-13T00:01:53;22.27;;;9.17;;
10479;SDS011;12789;42.610;23.040;2023-10-13T00:04:19;17.23;;;9.07;;
10479;SDS011;12789;42.610;23.040;2023-10-13T00:06:50;19.77;;;8.67;;
10479;SDS011;12789;42.610;23.040;2023-10-13T00:09:18;15.07;;;8.63;;
10479;SDS011;12789;42.610;23.040;2023-10-13T00:11:50;18.57;;;8.93;;
10479;SDS011;12789;42.610;23.040;2023-10-13T00:14:19;26.77;;;8.83;;
10479;SDS011;12789;42.610;23.040;2023-10-13T00:16:47;21.03;;;8.93;;
10479;SDS011;12789;42.610;23.040;2023-10-13T00:19:29;15.23;;;9.67;;
10479;SDS011;12789;42.610;23.040;2023-10-13T00:22:03;22.53;;;9.50;;
10479;SDS011;12789;42.610;23.040;2023-10-13T00:24:40;21.33;;;9.07;;
10479;SDS011;12789;42.610;23.040;2023-10-13T00:27:11;25.03;;;9.47;;
10479;SDS011;12789;42.610;23.040;2023-10-13T00:29:53;15.47;;;8.33;;
10479;SDS011;12789;42.610;23.040;2023-10-13T00:32:40;14.23;;;8.53;;
10479;SDS011;12789;42.610;23.040;2023-10-13T00:35:09;15.40;;;8.70;;
10479;SDS011;12789;42.610;23.040;2023-10-13T00:37:37;13.00;;;7.77;;
10479;SDS011;12789;42.610;23.040;2023-10-13T00:40:11;15.90;;;7.83;;
10479;SDS011;12789;42.610;23.040;2023-10-13T00:43:04;22.67;;;7.60;;
10479;SDS011;12789;42.610;23.040;2023-10-13T00:45:53;17.27;;;7.77;;
10479;SDS011;12789;42.610;23.040;2023-10-13T00:48:22;14.83;;;7.77;;
10479;SDS011;12789;42.610;23.040;2023-10-13T00:50:55;15.53;;;7.53;;
10479;SDS011;12789;42.610;23.040;2023-10-13T00:53:22;14.07;;;7.63;;
10479;SDS011;12789;42.610;23.040;2023-10-13T00:55:50;16.13;;;7.40;;
10479;SDS011;12789;42.610;23.040;2023-10-13T00:58:17;16.77;;;7.93;;
10479;SDS011;12789;42.610;23.040;2023-10-13T01:00:47;15.13;;;7.73;;
10479;SDS011;12789;42.610;23.040;2023-10-13T01:03:13;15.87;;;7.60;;
10479;SDS011;12789;42.610;23.040;2023-10-13T01:05:41;17.57;;;7.87;;
10479;SDS011;12789;42.610;23.040;2023-10-13T01:08:07;14.37;;;7.73;;
10479;SDS011;12789;42.610;23.040;2023-10-13T01:10:36;15.97;;;7.17;;
10479;SDS011;12789;42.610;23.040;2023-10-13T01:13:04;14.10;;;7.90;;
10479;SDS011;12789;42.610;23.040;2023-10-13T01:15:32;23.60;;;8.33;;
10479;SDS011;12789;42.610;23.040;2023-10-13T01:18:06;13.33;;;7.97;;
10479;SDS011;12789;42.610;23.040;2023-10-13T01:20:36;20.50;;;7.47;;
10479;SDS011;12789;42.610;23.040;2023-10-13T01:23:10;20.10;;;8.13;;
10479;SDS011;12789;42.610;23.040;2023-10-13T01:25:43;19.20;;;8.00;;
10479;SDS011;12789;42.610;23.040;2023-10-13T01:28:09;20.10;;;8.27;;
10479;SDS011;12789;42.610;23.040;2023-10-13T01:30:40;24.63;;;8.60;;
10479;SDS011;12789;42.610;23.040;2023-10-13T01:33:06;16.00;;;8.10;;
10479;SDS011;12789;42.610;23.040;2023-10-13T01:35:36;17.03;;;7.67;;
10479;SDS011;12789;42.610;23.040;2023-10-13T01:38:02;18.77;;;8.13;;
10479;SDS011;12789;42.610;23.040;2023-10-13T01:40:31;24.03;;;8.23;;
10479;SDS011;12789;42.610;23.040;2023-10-13T01:42:59;14.60;;;7.67;;
10479;SDS011;12789;42.610;23.040;2023-10-13T01:45:26;18.20;;;8.23;;
10479;SDS011;12789;42.610;23.040;2023-10-13T01:47:54;23.77;;;8.80;;
10479;SDS011;12789;42.610;23.040;2023-10-13T01:50:22;24.33;;;8.10;;
10479;SDS011;12789;42.610;23.040;2023-10-13T01:52:54;20.37;;;8.03;;
10479;SDS011;12789;42.610;23.040;2023-10-13T01:55:38;17.23;;;8.33;;
10479;SDS011;12789;42.610;23.040;2023-10-13T01:58:08;21.77;;;9.10;;
10479;SDS011;12789;42.610;23.040;2023-10-13T02:00:41;21.93;;;8.43;;
10479;SDS011;12789;42.610;23.040;2023-10-13T02:03:08;14.43;;;7.53;;
10479;SDS011;12789;42.610;23.040;2023-10-13T02:05:40;19.20;;;8.40;;
10479;SDS011;12789;42.610;23.040;2023-10-13T02:08:12;25.67;;;9.40;;
10479;SDS011;12789;42.610;23.040;2023-10-13T02:10:44;18.53;;;8.60;;
10479;SDS011;12789;42.610;23.040;2023-10-13T02:13:12;13.90;;;8.60;;
10479;SDS011;12789;42.610;23.040;2023-10-13T02:15:41;22.20;;;8.90;;
10479;SDS011;12789;42.610;23.040;2023-10-13T02:18:09;17.87;;;8.57;;
10479;SDS011;12789;42.610;23.040;2023-10-13T02:20:36;19.67;;;9.40;;
10479;SDS011;12789;42.610;23.040;2023-10-13T02:23:08;16.57;;;9.50;;
10479;SDS011;12789;42.610;23.040;2023-10-13T02:25:39;16.27;;;9.03;;
10479;SDS011;12789;42.610;23.040;2023-10-13T02:28:12;30.27;;;10.47;;
10479;SDS011;12789;42.610;23.040;2023-10-13T02:30:46;15.77;;;9.33;;
10479;SDS011;12789;42.610;23.040;2023-10-13T02:33:15;19.10;;;9.63;;
10479;SDS011;12789;42.610;23.040;2023-10-13T02:35:47;19.13;;;9.37;;
10479;SDS011;12789;42.610;23.040;2023-10-13T02:38:19;20.10;;;9.03;;
10479;SDS011;12789;42.610;23.040;2023-10-13T02:40:52;20.57;;;9.20;;
10479;SDS011;12789;42.610;23.040;2023-10-13T02:43:21;20.87;;;9.17;;
10479;SDS011;12789;42.610;23.040;2023-10-13T02:45:54;19.00;;;8.97;;
10479;SDS011;12789;42.610;23.040;2023-10-13T02:48:24;17.17;;;8.57;;
10479;SDS011;12789;42.610;23.040;2023-10-13T02:50:59;24.03;;;8.73;;
10479;SDS011;12789;42.610;23.040;2023-10-13T02:53:28;16.97;;;8.30;;
10479;SDS011;12789;42.610;23.040;2023-10-13T02:55:56;17.47;;;8.47;;
10479;SDS011;12789;42.610;23.040;2023-10-13T02:58:32;20.53;;;8.70;;
10479;SDS011;12789;42.610;23.040;2023-10-13T03:01:05;24.50;;;8.50;;
10479;SDS011;12789;42.610;23.040;2023-10-13T03:03:41;17.90;;;8.83;;
10479;SDS011;12789;42.610;23.040;2023-10-13T03:06:09;22.97;;;9.07;;
10479;SDS011;12789;42.610;23.040;2023-10-13T03:08:37;21.53;;;9.07;;
10479;SDS011;12789;42.610;23.040;2023-10-13T03:11:03;18.37;;;10.27;;
10479;SDS011;12789;42.610;23.040;2023-10-13T03:13:36;22.87;;;10.90;;
10479;SDS011;12789;42.610;23.040;2023-10-13T03:16:10;22.27;;;10.30;;
10479;SDS011;12789;42.610;23.040;2023-10-13T03:18:37;20.73;;;10.50;;
10479;SDS011;12789;42.610;23.040;2023-10-13T03:21:03;15.90;;;9.97;;
10479;SDS011;12789;42.610;23.040;2023-10-13T03:23:32;20.33;;;9.87;;
10479;SDS011;12789;42.610;23.040;2023-10-13T03:26:11;22.07;;;10.43;;
10479;SDS011;12789;42.610;23.040;2023-10-13T03:28:43;20.90;;;10.37;;
10479;SDS011;12789;42.610;23.040;2023-10-13T03:31:16;20.20;;;10.00;;
10479;SDS011;12789;42.610;23.040;2023-10-13T03:33:43;26.53;;;10.30;;
10479;SDS011;12789;42.610;23.040;2023-10-13T03:36:11;26.57;;;10.67;;
10479;SDS011;12789;42.610;23.040;2023-10-13T03:38:58;26.10;;;10.30;;
10479;SDS011;12789;42.610;23.040;2023-10-13T03:41:25;24.90;;;10.67;;
10479;SDS011;12789;42.610;23.040;2023-10-13T03:43:57;24.27;;;10.67;;
10479;SDS011;12789;42.610;23.040;2023-10-13T03:46:34;28.73;;;10.97;;
10479;SDS011;12789;42.610;23.040;2023-10-13T03:49:01;28.90;;;11.57;;
10479;SDS011;12789;42.610;23.040;2023-10-13T03:51:31;19.10;;;11.07;;
10479;SDS011;12789;42.610;23.040;2023-10-13T03:53:59;25.13;;;11.77;;
10479;SDS011;12789;42.610;23.040;2023-10-13T03:56:32;21.73;;;11.30;;
10479;SDS011;12789;42.610;23.040;2023-10-13T03:59:08;26.33;;;11.40;;
10479;SDS011;12789;42.610;23.040;2023-10-13T04:01:43;27.83;;;11.83;;
10479;SDS011;12789;42.610;23.040;2023-10-13T04:04:23;25.60;;;11.47;;
10479;SDS011;12789;42.610;23.040;2023-10-13T04:06:59;25.63;;;10.60;;
10479;SDS011;12789;42.610;23.040;2023-10-13T04:09:45;24.53;;;11.07;;
10479;SDS011;12789;42.610;23.040;2023-10-13T04:12:40;26.73;;;11.50;;
10479;SDS011;12789;42.610;23.040;2023-10-13T04:15:26;22.93;;;10.40;;
10479;SDS011;12789;42.610;23.040;2023-10-13T04:18:03;22.57;;;10.63;;
10479;SDS011;12789;42.610;23.040;2023-10-13T04:20:44;19.87;;;10.77;;
10479;SDS011;12789;42.610;23.040;2023-10-13T04:23:12;28.20;;;10.70;;
10479;SDS011;12789;42.610;23.040;2023-10-13T04:25:44;35.17;;;10.20;;
10479;SDS011;12789;42.610;23.040;2023-10-13T04:28:28;35.40;;;9.87;;
10479;SDS011;12789;42.610;23.040;2023-10-13T04:31:04;27.77;;;9.53;;
10479;SDS011;12789;42.610;23.040;2023-10-13T04:33:50;37.17;;;9.80;;
10479;SDS011;12789;42.610;23.040;2023-10-13T04:36:17;26.33;;;8.50;;
10479;SDS011;12789;42.610;23.040;2023-10-13T04:39:01;35.60;;;10.57;;
10479;SDS011;12789;42.610;23.040;2023-10-13T04:41:34;24.03;;;10.10;;
10479;SDS011;12789;42.610;23.040;2023-10-13T04:44:03;38.60;;;11.27;;
10479;SDS011;12789;42.610;23.040;2023-10-13T04:46:35;32.70;;;12.53;;
10479;SDS011;12789;42.610;23.040;2023-10-13T04:49:19;29.83;;;12.73;;
10479;SDS011;12789;42.610;23.040;2023-10-13T04:51:54;34.07;;;11.93;;
10479;SDS011;12789;42.610;23.040;2023-10-13T04:54:25;18.80;;;9.70;;
10479;SDS011;12789;42.610;23.040;2023-10-13T04:57:10;36.90;;;10.87;;
10479;SDS011;12789;42.610;23.040;2023-10-13T04:59:50;29.70;;;9.53;;
10479;SDS011;12789;42.610;23.040;2023-10-13T05:02:36;28.90;;;9.80;;
10479;SDS011;12789;42.610;23.040;2023-10-13T05:05:20;32.17;;;10.20;;
10479;SDS011;12789;42.610;23.040;2023-10-13T05:08:13;29.33;;;10.63;;
10479;SDS011;12789;42.610;23.040;2023-10-13T05:10:57;32.47;;;10.73;;
10479;SDS011;12789;42.610;23.040;2023-10-13T05:13:55;28.33;;;9.60;;
10479;SDS011;12789;42.610;23.040;2023-10-13T05:16:39;26.77;;;9.50;;
10479;SDS011;12789;42.610;23.040;2023-10-13T05:19:25;22.73;;;9.53;;
10479;SDS011;12789;42.610;23.040;2023-10-13T05:22:12;31.30;;;10.63;;
10479;SDS011;12789;42.610;23.040;2023-10-13T05:24:56;43.93;;;17.30;;
10479;SDS011;12789;42.610;23.040;2023-10-13T05:27:41;44.20;;;15.97;;
10479;SDS011;12789;42.610;23.040;2023-10-13T05:30:24;30.33;;;12.70;;
10479;SDS011;12789;42.610;23.040;2023-10-13T05:33:09;25.80;;;11.73;;
10479;SDS011;12789;42.610;23.040;2023-10-13T05:35:56;28.90;;;12.33;;
10479;SDS011;12789;42.610;23.040;2023-10-13T05:38:39;27.87;;;12.10;;
10479;SDS011;12789;42.610;23.040;2023-10-13T05:41:23;33.33;;;12.17;;
10479;SDS011;12789;42.610;23.040;2023-10-13T05:44:07;31.97;;;12.47;;
10479;SDS011;12789;42.610;23.040;2023-10-13T05:46:52;27.87;;;11.80;;
10479;SDS011;12789;42.610;23.040;2023-10-13T05:49:35;66.50;;;30.00;;
10479;SDS011;12789;42.610;23.040;2023-10-13T05:52:21;31.57;;;18.17;;
10479;SDS011;12789;42.610;23.040;2023-10-13T05:55:05;32.20;;;14.53;;
10479;SDS011;12789;42.610;23.040;2023-10-13T05:57:49;34.27;;;13.07;;
10479;SDS011;12789;42.610;23.040;2023-10-13T06:00:38;28.03;;;11.90;;
10479;SDS011;12789;42.610;23.040;2023-10-13T06:03:22;25.93;;;12.90;;
10479;SDS011;12789;42.610;23.040;2023-10-13T06:06:06;22.17;;;12.97;;
10479;SDS011;12789;42.610;23.040;2023-10-13T06:08:53;28.77;;;11.57;;
10479;SDS011;12789;42.610;23.040;2023-10-13T06:11:37;28.20;;;11.87;;
10479;SDS011;12789;42.610;23.040;2023-10-13T06:14:21;27.63;;;12.73;;
10479;SDS011;12789;42.610;23.040;2023-10-13T06:17:06;28.57;;;13.37;;
10479;SDS011;12789;42.610;23.040;2023-10-13T06:19:49;141.00;;;76.70;;
10479;SDS011;12789;42.610;23.040;2023-10-13T06:22:34;52.67;;;24.00;;
10479;SDS011;12789;42.610;23.040;2023-10-13T06:25:19;49.53;;;20.93;;
10479;SDS011;12789;42.610;23.040;2023-10-13T06:28:03;39.13;;;20.30;;
10479;SDS011;12789;42.610;23.040;2023-10-13T06:30:55;41.67;;;15.83;;
10479;SDS011;12789;42.610;23.040;2023-10-13T06:33:23;42.23;;;15.10;;
10479;SDS011;12789;42.610;23.040;2023-10-13T06:35:55;37.27;;;14.77;;
10479;SDS011;12789;42.610;23.040;2023-10-13T06:38:23;32.13;;;14.27;;
10479;SDS011;12789;42.610;23.040;2023-10-13T06:40:57;42.03;;;14.53;;
10479;SDS011;12789;42.610;23.040;2023-10-13T06:43:24;37.07;;;14.40;;
10479;SDS011;12789;42.610;23.040;2023-10-13T06:45:56;41.27;;;14.53;;
10479;SDS011;12789;42.610;23.040;2023-10-13T06:48:25;37.20;;;15.43;;
10479;SDS011;12789;42.610;23.040;2023-10-13T06:50:52;38.50;;;15.23;;
10479;SDS011;12789;42.610;23.040;2023-10-13T06:53:21;36.07;;;15.43;;
10479;SDS011;12789;42.610;23.040;2023-10-13T06:55:49;44.40;;;15.47;;
10479;SDS011;12789;42.610;23.040;2023-10-13T06:58:19;28.47;;;14.13;;
10479;SDS011;12789;42.610;23.040;2023-10-13T07:00:49;36.10;;;14.70;;
10479;SDS011;12789;42.610;23.040;2023-10-13T07:03:23;36.70;;;13.43;;
10479;SDS011;12789;42.610;23.040;2023-10-13T07:05:50;34.80;;;13.80;;
10479;SDS011;12789;42.610;23.040;2023-10-13T07:08:18;38.63;;;14.30;;
10479;SDS011;12789;42.610;23.040;2023-10-13T07:10:49;35.33;;;13.13;;
10479;SDS011;12789;42.610;23.040;2023-10-13T07:13:29;39.10;;;12.93;;
10479;SDS011;12789;42.610;23.040;2023-10-13T07:15:55;29.77;;;11.60;;
10479;SDS011;12789;42.610;23.040;2023-10-13T07:18:31;37.53;;;12.60;;
10479;SDS011;12789;42.610;23.040;2023-10-13T07:21:03;48.40;;;11.70;;
10479;SDS011;12789;42.610;23.040;2023-10-13T07:23:35;37.60;;;11.77;;
10479;SDS011;12789;42.610;23.040;2023-10-13T07:26:04;31.50;;;10.73;;
10479;SDS011;12789;42.610;23.040;2023-10-13T07:28:35;34.63;;;11.77;;
10479;SDS011;12789;42.610;23.040;2023-10-13T07:31:01;33.60;;;11.73;;
10479;SDS011;12789;42.610;23.040;2023-10-13T07:33:52;33.87;;;11.00;;
10479;SDS011;12789;42.610;23.040;2023-10-13T07:36:29;29.70;;;10.70;;
10479;SDS011;12789;42.610;23.040;2023-10-13T07:39:02;31.10;;;11.07;;
10479;SDS011;12789;42.610;23.040;2023-10-13T07:41:45;36.72;;;10.82;;
10479;SDS011;12789;42.610;23.040;2023-10-13T07:44:19;22.08;;;9.27;;
10479;SDS011;12789;42.610;23.040;2023-10-13T07:46:50;30.65;;;10.50;;
10479;SDS011;12789;42.610;23.040;2023-10-13T07:49:25;35.05;;;11.25;;
10479;SDS011;12789;42.610;23.040;2023-10-13T07:51:56;29.83;;;10.73;;
10479;SDS011;12789;42.610;23.040;2023-10-13T07:54:25;29.83;;;10.07;;
10479;SDS011;12789;42.610;23.040;2023-10-13T07:56:53;30.25;;;11.30;;
10479;SDS011;12789;42.610;23.040;2023-10-13T07:59:22;31.25;;;11.60;;
10479;SDS011;12789;42.610;23.040;2023-10-13T08:01:50;27.90;;;10.52;;
10479;SDS011;12789;42.610;23.040;2023-10-13T08:04:37;23.70;;;9.80;;
10479;SDS011;12789;42.610;23.040;2023-10-13T08:07:05;30.77;;;9.43;;
10479;SDS011;12789;42.610;23.040;2023-10-13T08:09:40;27.73;;;9.88;;
10479;SDS011;12789;42.610;23.040;2023-10-13T08:12:08;21.52;;;10.35;;
10479;SDS011;12789;42.610;23.040;2023-10-13T08:14:38;22.10;;;9.40;;
10479;SDS011;12789;42.610;23.040;2023-10-13T08:17:09;22.83;;;8.77;;
10479;SDS011;12789;42.610;23.040;2023-10-13T08:19:37;20.65;;;9.63;;
10479;SDS011;12789;42.610;23.040;2023-10-13T08:22:10;30.95;;;9.95;;
10479;SDS011;12789;42.610;23.040;2023-10-13T08:25:01;26.60;;;9.70;;
10479;SDS011;12789;42.610;23.040;2023-10-13T08:27:50;18.40;;;8.80;;
10479;SDS011;12789;42.610;23.040;2023-10-13T08:30:52;25.88;;;8.20;;
10479;SDS011;12789;42.610;23.040;2023-10-13T08:33:19;18.48;;;7.72;;
10479;SDS011;12789;42.610;23.040;2023-10-13T08:35:50;20.92;;;7.40;;
10479;SDS011;12789;42.610;23.040;2023-10-13T08:38:43;24.35;;;6.60;;
10479;SDS011;12789;42.610;23.040;2023-10-13T08:41:17;15.27;;;6.18;;
10479;SDS011;12789;42.610;23.040;2023-10-13T08:43:55;15.13;;;6.18;;
10479;SDS011;12789;42.610;23.040;2023-10-13T08:46:32;17.70;;;7.00;;
10479;SDS011;12789;42.610;23.040;2023-10-13T08:49:25;15.43;;;6.53;;
10479;SDS011;12789;42.610;23.040;2023-10-13T08:51:54;17.50;;;7.07;;
10479;SDS011;12789;42.610;23.040;2023-10-13T08:54:51;19.42;;;7.07;;
10479;SDS011;12789;42.610;23.040;2023-10-13T08:57:29;23.92;;;6.60;;
10479;SDS011;12789;42.610;23.040;2023-10-13T08:59:58;29.80;;;14.32;;
10479;SDS011;12789;42.610;23.040;2023-10-13T09:02:46;42.50;;;23.83;;
10479;SDS011;12789;42.610;23.040;2023-10-13T09:05:30;13.25;;;8.20;;
10479;SDS011;12789;42.610;23.040;2023-10-13T09:08:08;19.25;;;6.18;;
10479;SDS011;12789;42.610;23.040;2023-10-13T09:10:35;10.73;;;5.65;;
10479;SDS011;12789;42.610;23.040;2023-10-13T09:13:10;26.90;;;9.52;;
10479;SDS011;12789;42.610;23.040;2023-10-13T09:15:36;15.43;;;5.93;;
10479;SDS011;12789;42.610;23.040;2023-10-13T09:18:25;13.20;;;5.95;;
10479;SDS011;12789;42.610;23.040;2023-10-13T09:21:13;14.63;;;5.38;;
10479;SDS011;12789;42.610;23.040;2023-10-13T09:23:57;18.23;;;5.80;;
10479;SDS011;12789;42.610;23.040;2023-10-13T09:26:41;11.10;;;5.65;;
10479;SDS011;12789;42.610;23.040;2023-10-13T09:29:17;16.08;;;5.43;;
10479;SDS011;12789;42.610;23.040;2023-10-13T09:31:47;12.43;;;5.10;;
10479;SDS011;12789;42.610;23.040;2023-10-13T09:34:21;12.55;;;5.15;;
10479;SDS011;12789;42.610;23.040;2023-10-13T09:36:49;10.98;;;5.70;;
10479;SDS011;12789;42.610;23.040;2023-10-13T09:39:24;10.52;;;5.18;;
10479;SDS011;12789;42.610;23.040;2023-10-13T09:42:00;12.23;;;5.60;;
10479;SDS011;12789;42.610;23.040;2023-10-13T09:44:26;17.00;;;5.30;;
10479;SDS011;12789;42.610;23.040;2023-10-13T09:46:57;7.53;;;5.43;;
10479;SDS011;12789;42.610;23.040;2023-10-13T09:49:34;11.45;;;5.32;;
10479;SDS011;12789;42.610;23.040;2023-10-13T09:52:10;10.35;;;5.30;;
10479;SDS011;12789;42.610;23.040;2023-10-13T09:54:44;14.25;;;4.82;;
10479;SDS011;12789;42.610;23.040;2023-10-13T09:57:27;6.65;;;4.20;;
10479;SDS011;12789;42.610;23.040;2023-10-13T10:00:00;17.52;;;5.75;;
10479;SDS011;12789;42.610;23.040;2023-10-13T10:02:32;16.42;;;5.30;;
10479;SDS011;12789;42.610;23.040;2023-10-13T10:05:07;10.13;;;5.30;;
10479;SDS011;12789;42.610;23.040;2023-10-13T10:07:53;9.15;;;4.65;;
10479;SDS011;12789;42.610;23.040;2023-10-13T10:10:25;8.48;;;4.68;;
10479;SDS011;12789;42.610;23.040;2023-10-13T10:12:52;11.43;;;5.05;;
10479;SDS011;12789;42.610;23.040;2023-10-13T10:15:25;14.82;;;4.88;;
10479;SDS011;12789;42.610;23.040;2023-10-13T10:17:56;8.25;;;4.40;;
10479;SDS011;12789;42.610;23.040;2023-10-13T10:20:30;10.98;;;4.28;;
10479;SDS011;12789;42.610;23.040;2023-10-13T10:23:07;12.15;;;4.38;;
10479;SDS011;12789;42.610;23.040;2023-10-13T10:25:39;12.30;;;4.45;;
10479;SDS011;12789;42.610;23.040;2023-10-13T10:28:10;6.50;;;3.75;;
10479;SDS011;12789;42.610;23.040;2023-10-13T10:30:41;6.55;;;3.67;;
10479;SDS011;12789;42.610;23.040;2023-10-13T10:33:10;9.10;;;3.50;;
10479;SDS011;12789;42.610;23.040;2023-10-13T10:35:41;7.43;;;3.70;;
10479;SDS011;12789;42.610;23.040;2023-10-13T10:38:09;7.82;;;3.70;;
10479;SDS011;12789;42.610;23.040;2023-10-13T10:40:51;7.45;;;3.70;;
10479;SDS011;12789;42.610;23.040;2023-10-13T10:43:22;8.60;;;3.38;;
10479;SDS011;12789;42.610;23.040;2023-10-13T10:45:51;5.20;;;2.70;;
10479;SDS011;12789;42.610;23.040;2023-10-13T10:48:24;5.32;;;3.35;;
10479;SDS011;12789;42.610;23.040;2023-10-13T10:50:58;5.88;;;3.30;;
10479;SDS011;12789;42.610;23.040;2023-10-13T10:53:33;13.48;;;4.38;;
10479;SDS011;12789;42.610;23.040;2023-10-13T10:56:09;9.73;;;3.50;;
10479;SDS011;12789;42.610;23.040;2023-10-13T10:58:45;7.75;;;3.40;;
10479;SDS011;12789;42.610;23.040;2023-10-13T11:01:13;5.07;;;3.47;;
10479;SDS011;12789;42.610;23.040;2023-10-13T11:03:53;12.30;;;3.60;;
10479;SDS011;12789;42.610;23.040;2023-10-13T11:06:24;10.85;;;3.60;;
10479;SDS011;12789;42.610;23.040;2023-10-13T11:09:00;7.38;;;3.53;;
10479;SDS011;12789;42.610;23.040;2023-10-13T11:11:29;5.60;;;3.47;;
10479;SDS011;12789;42.610;23.040;2023-10-13T11:14:00;11.25;;;3.65;;
10479;SDS011;12789;42.610;23.040;2023-10-13T11:16:48;5.25;;;3.70;;
10479;SDS011;12789;42.610;23.040;2023-10-13T11:19:18;6.43;;;3.30;;
10479;SDS011;12789;42.610;23.040;2023-10-13T11:21:52;6.47;;;3.45;;
10479;SDS011;12789;42.610;23.040;2023-10-13T11:24:20;8.80;;;3.70;;
10479;SDS011;12789;42.610;23.040;2023-10-13T11:26:48;6.40;;;3.40;;
10479;SDS011;12789;42.610;23.040;2023-10-13T11:29:19;6.25;;;3.10;;
10479;SDS011;12789;42.610;23.040;2023-10-13T11:31:57;4.60;;;2.88;;
10479;SDS011;12789;42.610;23.040;2023-10-13T11:34:26;7.82;;;2.72;;
10479;SDS011;12789;42.610;23.040;2023-10-13T11:37:06;7.40;;;2.95;;
10479;SDS011;12789;42.610;23.040;2023-10-13T11:39:46;8.82;;;3.22;;
10479;SDS011;12789;42.610;23.040;2023-10-13T11:42:14;5.10;;;3.17;;
10479;SDS011;12789;42.610;23.040;2023-10-13T11:44:42;5.53;;;3.17;;
10479;SDS011;12789;42.610;23.040;2023-10-13T11:47:08;3.53;;;2.85;;
10479;SDS011;12789;42.610;23.040;2023-10-13T11:50:03;11.68;;;3.13;;
10479;SDS011;12789;42.610;23.040;2023-10-13T11:52:32;7.97;;;3.50;;
10479;SDS011;12789;42.610;23.040;2023-10-13T11:54:59;6.95;;;3.00;;
10479;SDS011;12789;42.610;23.040;2023-10-13T11:57:26;9.73;;;2.95;;
10479;SDS011;12789;42.610;23.040;2023-10-13T11:59:52;10.48;;;3.00;;
10479;SDS011;12789;42.610;23.040;2023-10-13T12:02:21;6.13;;;2.45;;
10479;SDS011;12789;42.610;23.040;2023-10-13T12:05:05;7.78;;;2.53;;
10479;SDS011;12789;42.610;23.040;2023-10-13T12:07:40;7.53;;;2.88;;
10479;SDS011;12789;42.610;23.040;2023-10-13T12:10:13;12.57;;;2.67;;
10479;SDS011;12789;42.610;23.040;2023-10-13T12:12:58;4.95;;;2.30;;
10479;SDS011;12789;42.610;23.040;2023-10-13T12:15:31;4.95;;;2.58;;
10479;SDS011;12789;42.610;23.040;2023-10-13T12:18:02;6.32;;;2.20;;
10479;SDS011;12789;42.610;23.040;2023-10-13T12:20:29;5.15;;;2.40;;
10479;SDS011;12789;42.610;23.040;2023-10-13T12:23:02;3.13;;;2.20;;
10479;SDS011;12789;42.610;23.040;2023-10-13T12:25:46;9.70;;;2.15;;
10479;SDS011;12789;42.610;23.040;2023-10-13T12:28:26;15.57;;;3.50;;
10479;SDS011;12789;42.610;23.040;2023-10-13T12:31:02;5.50;;;2.70;;
10479;SDS011;12789;42.610;23.040;2023-10-13T12:33:34;5.03;;;2.40;;
10479;SDS011;12789;42.610;23.040;2023-10-13T12:36:05;4.43;;;2.13;;
10479;SDS011;12789;42.610;23.040;2023-10-13T12:38:41;8.90;;;2.88;;
10479;SDS011;12789;42.610;23.040;2023-10-13T12:41:25;6.88;;;2.20;;
10479;SDS011;12789;42.610;23.040;2023-10-13T12:44:09;6.70;;;2.05;;
10479;SDS011;12789;42.610;23.040;2023-10-13T12:46:53;3.58;;;2.35;;
10479;SDS011;12789;42.610;23.040;2023-10-13T12:49:37;6.68;;;2.30;;
10479;SDS011;12789;42.610;23.040;2023-10-13T12:52:24;5.35;;;2.30;;
10479;SDS011;12789;42.610;23.040;2023-10-13T12:54:58;4.03;;;2.38;;
10479;SDS011;12789;42.610;23.040;2023-10-13T12:57:31;3.90;;;2.10;;
10479;SDS011;12789;42.610;23.040;2023-10-13T12:59:58;4.18;;;2.25;;
10479;SDS011;12789;42.610;23.040;2023-10-13T13:02:27;8.63;;;2.60;;
10479;SDS011;12789;42.610;23.040;2023-10-13T13:04:55;6.05;;;2.97;;
10479;SDS011;12789;42.610;23.040;2023-10-13T13:07:30;6.32;;;2.92;;
10479;SDS011;12789;42.610;23.040;2023-10-13T13:10:10;6.43;;;1.83;;
10479;SDS011;12789;42.610;23.040;2023-10-13T13:12:37;3.35;;;1.92;;
10479;SDS011;12789;42.610;23.040;2023-10-13T13:15:04;2.83;;;1.73;;
10479;SDS011;12789;42.610;23.040;2023-10-13T13:17:34;8.20;;;2.05;;
10479;SDS011;12789;42.610;23.040;2023-10-13T13:20:00;8.70;;;2.45;;
10479;SDS011;12789;42.610;23.040;2023-10-13T13:22:35;7.63;;;2.63;;
10479;SDS011;12789;42.610;23.040;2023-10-13T13:25:02;5.80;;;2.60;;
10479;SDS011;12789;42.610;23.040;2023-10-13T13:27:34;6.22;;;2.78;;
10479;SDS011;12789;42.610;23.040;2023-10-13T13:30:02;5.95;;;2.47;;
10479;SDS011;12789;42.610;23.040;2023-10-13T13:32:37;7.32;;;2.70;;
10479;SDS011;12789;42.610;23.040;2023-10-13T13:35:04;6.20;;;2.38;;
10479;SDS011;12789;42.610;23.040;2023-10-13T13:37:33;9.00;;;2.30;;
10479;SDS011;12789;42.610;23.040;2023-10-13T13:39:59;4.40;;;2.50;;
10479;SDS011;12789;42.610;23.040;2023-10-13T13:42:40;3.58;;;2.08;;
10479;SDS011;12789;42.610;23.040;2023-10-13T13:45:11;5.75;;;2.58;;
10479;SDS011;12789;42.610;23.040;2023-10-13T13:47:44;10.30;;;2.53;;
10479;SDS011;12789;42.610;23.040;2023-10-13T13:50:11;10.02;;;3.17;;
10479;SDS011;12789;42.610;23.040;2023-10-13T13:52:49;8.57;;;2.47;;
10479;SDS011;12789;42.610;23.040;2023-10-13T13:55:17;22.17;;;3.90;;
10479;SDS011;12789;42.610;23.040;2023-10-13T13:57:46;5.68;;;2.75;;
10479;SDS011;12789;42.610;23.040;2023-10-13T14:00:15;4.90;;;2.67;;
10479;SDS011;12789;42.610;23.040;2023-10-13T14:02:45;6.88;;;3.30;;
10479;SDS011;12789;42.610;23.040;2023-10-13T14:05:13;40.58;;;3.97;;
10479;SDS011;12789;42.610;23.040;2023-10-13T14:07:42;11.68;;;3.20;;
10479;SDS011;12789;42.610;23.040;2023-10-13T14:10:14;8.63;;;3.22;;
10479;SDS011;12789;42.610;23.040;2023-10-13T14:12:58;13.35;;;3.28;;
10479;SDS011;12789;42.610;23.040;2023-10-13T14:15:32;7.47;;;3.38;;
10479;SDS011;12789;42.610;23.040;2023-10-13T14:18:05;9.10;;;3.20;;
10479;SDS011;12789;42.610;23.040;2023-10-13T14:20:32;8.50;;;3.78;;
10479;SDS011;12789;42.610;23.040;2023-10-13T14:23:05;8.52;;;3.40;;
10479;SDS011;12789;42.610;23.040;2023-10-13T14:25:35;6.97;;;4.50;;
10479;SDS011;12789;42.610;23.040;2023-10-13T14:28:05;9.52;;;3.45;;
10479;SDS011;12789;42.610;23.040;2023-10-13T14:30:32;5.75;;;3.25;;
10479;SDS011;12789;42.610;23.040;2023-10-13T14:32:59;4.47;;;3.03;;
10479;SDS011;12789;42.610;23.040;2023-10-13T14:35:26;8.70;;;3.22;;
10479;SDS011;12789;42.610;23.040;2023-10-13T14:37:54;10.20;;;4.22;;
10479;SDS011;12789;42.610;23.040;2023-10-13T14:40:20;7.95;;;4.00;;
10479;SDS011;12789;42.610;23.040;2023-10-13T14:42:48;8.18;;;3.50;;
10479;SDS011;12789;42.610;23.040;2023-10-13T14:45:16;9.85;;;3.20;;
10479;SDS011;12789;42.610;23.040;2023-10-13T14:47:43;11.60;;;4.13;;
10479;SDS011;12789;42.610;23.040;2023-10-13T14:50:10;10.20;;;3.65;;
10479;SDS011;12789;42.610;23.040;2023-10-13T14:52:45;8.38;;;3.42;;
10479;SDS011;12789;42.610;23.040;2023-10-13T14:55:12;8.13;;;3.28;;
10479;SDS011;12789;42.610;23.040;2023-10-13T14:58:03;9.57;;;3.38;;
10479;SDS011;12789;42.610;23.040;2023-10-13T15:00:34;14.25;;;3.80;;
10479;SDS011;12789;42.610;23.040;2023-10-13T15:03:03;9.50;;;4.75;;